RJSR(METAR)
02/19 09:00
METAR RJSR 190000Z 00000KT 9999 FEW010 SCT035 BKN130 M02/M02 Q1025
RMK 1ST010 3SC035 7AC130 A3027=
戻る
トップページへ戻る
IMOC Co,.Ltd.